Time;durP1;ratioP1;P1;durP2;ratioP2;P2;SDS_P1;SDS_P2;PMS_P1;PMS_P2;Temp;Humidity;BMP_temperature;BMP_pressure;BME280_temperature;BME280_humidity;BME280_pressure;Samples;Min_cycle;Max_cycle;Signal;HPM_P1;HPM_P2
2021/06/29 00:02:05;;;;;;;11.13;6.23;;;;;;;18.46;79.47;101272.34;5048168;28;20259;-77
2021/06/29 00:04:30;;;;;;;15.73;6.77;;;;;;;18.29;80.41;101253.25;5047194;28;20673;-77
2021/06/29 00:06:56;;;;;;;9.97;5.83;;;;;;;18.34;79.92;101243.56;5049435;28;20191;-77
2021/06/29 00:09:22;;;;;;;15.60;6.20;;;;;;;17.73;80.32;101148.06;5049068;28;20176;-78
2021/06/29 00:11:47;;;;;;;9.07;6.10;;;;;;;18.29;80.05;101222.56;5047156;28;20208;-77
2021/06/29 00:14:13;;;;;;;13.00;6.43;;;;;;;18.28;80.71;101234.47;5048491;28;20184;-77
2021/06/29 00:16:38;;;;;;;14.93;6.60;;;;;;;18.14;81.05;101225.81;5050105;28;20191;-78
2021/06/29 00:19:04;;;;;;;11.20;5.60;;;;;;;17.79;81.04;101155.28;5049337;28;20210;-78
2021/06/29 00:21:30;;;;;;;17.63;6.90;;;;;;;18.29;80.78;101228.81;5050499;28;20207;-78
2021/06/29 00:23:56;;;;;;;15.37;6.80;;;;;;;18.30;80.86;101229.63;5047120;28;20187;-77
2021/06/29 00:26:21;;;;;;;19.63;7.00;;;;;;;18.09;81.35;101214.00;5044898;28;20517;-77
2021/06/29 00:28:47;;;;;;;9.47;6.57;;;;;;;17.24;80.84;101039.09;5043916;28;20259;-77
2021/06/29 00:31:12;;;;;;;14.10;6.73;;;;;;;18.30;81.10;101225.03;5037497;28;20260;-77
2021/06/29 00:33:38;;;;;;;14.57;7.23;;;;;;;17.78;81.27;101137.38;5038832;28;20223;-77
2021/06/29 00:36:05;;;;;;;16.63;6.53;;;;;;;18.21;81.65;101206.66;5044863;28;20179;-77
2021/06/29 00:38:30;;;;;;;15.87;6.70;;;;;;;18.07;81.27;101166.19;5039802;28;20189;-77
2021/06/29 00:40:56;;;;;;;17.10;8.00;;;;;;;18.28;81.64;101208.16;5040134;28;20583;-77
2021/06/29 00:43:22;;;;;;;21.30;7.20;;;;;;;17.27;82.24;101061.16;5039688;28;20177;-77
2021/06/29 00:45:48;;;;;;;13.83;7.20;;;;;;;17.76;81.42;101113.19;5040912;28;20245;-77
2021/06/29 00:48:14;;;;;;;13.87;8.10;;;;;;;17.74;82.88;101191.25;5040744;28;20189;-77
2021/06/29 00:50:41;;;;;;;13.70;7.70;;;;;;;17.11;82.92;101086.25;5037512;28;20470;-77
2021/06/29 00:53:09;;;;;;;16.27;7.97;;;;;;;17.90;82.82;101181.56;5039060;28;20180;-77
2021/06/29 00:55:35;;;;;;;14.70;7.00;;;;;;;17.99;83.21;101209.16;5040134;28;20430;-77
2021/06/29 00:58:01;;;;;;;16.43;7.33;;;;;;;17.40;82.35;101082.56;5041758;28;20434;-77
2021/06/29 01:00:27;;;;;;;14.50;7.53;;;;;;;17.72;82.57;101130.16;5040711;28;21028;-77
2021/06/29 01:02:53;;;;;;;13.30;8.30;;;;;;;17.98;81.98;101154.06;5039612;28;20211;-77
2021/06/29 01:05:19;;;;;;;17.77;8.27;;;;;;;18.24;82.27;101214.31;5040954;28;20961;-77
2021/06/29 01:07:46;;;;;;;16.60;8.20;;;;;;;17.50;82.69;101108.25;5040447;28;20180;-77
2021/06/29 01:10:12;;;;;;;18.07;8.40;;;;;;;17.13;82.35;101021.81;5038603;28;20485;-77
2021/06/29 01:12:37;;;;;;;13.10;8.10;;;;;;;18.27;82.30;101208.41;5036371;28;20467;-77
2021/06/29 01:15:05;;;;;;;14.30;7.43;;;;;;;17.79;82.29;101148.00;5037271;28;20191;-77
2021/06/29 01:17:30;;;;;;;12.83;7.10;;;;;;;18.26;82.75;101215.72;5039536;28;20191;-77
2021/06/29 01:20:04;;;;;;;17.83;8.60;;;;;;;17.86;81.94;101120.72;5040035;28;20464;-77
2021/06/29 01:22:30;;;;;;;14.50;7.70;;;;;;;17.80;83.19;101156.97;5039466;28;20187;-78
2021/06/29 01:24:58;;;;;;;16.73;8.13;;;;;;;17.95;82.68;101167.31;5048170;28;20519;-77
2021/06/29 01:32:24;;;;;;;15.83;7.73;;;;;;;17.83;83.23;101170.03;5045505;28;20459;-78
2021/06/29 01:34:50;;;;;;;17.30;8.47;;;;;;;18.11;83.44;101234.41;5045647;28;20446;-78
2021/06/29 01:37:17;;;;;;;13.80;8.10;;;;;;;17.91;82.10;101168.84;5048637;28;20433;-78
2021/06/29 01:39:57;;;;;;;12.97;8.10;;;;;;;18.19;82.51;101208.78;5050853;28;20461;-77
2021/06/29 01:42:23;;;;;;;13.53;7.80;;;;;;;18.16;83.07;101215.50;5041313;28;20495;-77
2021/06/29 01:44:48;;;;;;;15.60;8.13;;;;;;;18.18;82.96;101213.38;5038435;28;20526;-77
2021/06/29 01:47:38;;;;;;;14.00;8.30;;;;;;;18.31;82.81;101201.41;5038821;28;20635;-77
2021/06/29 01:50:14;;;;;;;15.60;8.30;;;;;;;18.42;82.19;101197.00;5043454;28;20215;-77
2021/06/29 01:52:40;;;;;;;15.60;8.80;;;;;;;18.25;83.00;101194.22;5046344;28;20464;-77
2021/06/29 01:55:06;;;;;;;22.23;8.80;;;;;;;17.82;83.05;101135.84;5045724;28;20439;-78
2021/06/29 01:57:31;;;;;;;19.03;8.00;;;;;;;17.51;82.91;101080.91;5045821;28;20621;-78
2021/06/29 01:59:57;;;;;;;12.23;7.83;;;;;;;17.42;82.14;101038.97;5047353;28;20477;-80
2021/06/29 02:02:22;;;;;;;17.87;8.63;;;;;;;18.35;82.61;101197.16;5047284;28;20185;-78
2021/06/29 02:04:48;;;;;;;19.00;9.10;;;;;;;18.22;82.84;101203.69;5047504;28;20184;-78
2021/06/29 02:07:13;;;;;;;16.57;8.43;;;;;;;17.28;83.16;101056.53;5047882;28;21794;-78
2021/06/29 02:09:39;;;;;;;14.87;8.50;;;;;;;17.69;82.63;101104.31;5046026;28;20208;-78
2021/06/29 02:12:05;;;;;;;16.90;8.10;;;;;;;17.44;82.50;101053.09;5046544;28;20254;-78
2021/06/29 02:14:31;;;;;;;13.00;7.77;;;;;;;18.39;82.53;101198.31;5044727;28;20191;-78
2021/06/29 02:16:56;;;;;;;15.53;9.27;;;;;;;18.14;82.87;101184.22;5044719;28;20442;-78
2021/06/29 02:19:21;;;;;;;13.27;8.53;;;;;;;17.55;82.29;101078.53;5045717;28;20188;-78
2021/06/29 02:21:50;;;;;;;14.90;8.20;;;;;;;17.95;82.49;101143.69;5047723;28;20219;-78
2021/06/29 02:24:16;;;;;;;16.00;7.50;;;;;;;17.82;82.00;101123.09;5047419;28;20181;-78
2021/06/29 02:26:41;;;;;;;18.77;8.90;;;;;;;17.29;83.06;101045.44;5048966;28;21001;-78
2021/06/29 02:29:07;;;;;;;15.17;8.53;;;;;;;17.74;83.01;101111.75;5047883;28;20184;-78
2021/06/29 02:31:32;;;;;;;18.23;9.07;;;;;;;17.73;83.18;101115.53;5048806;28;20298;-78
2021/06/29 02:33:58;;;;;;;15.63;8.60;;;;;;;17.51;83.57;101097.19;5048822;28;20218;-78
2021/06/29 02:36:23;;;;;;;22.10;8.60;;;;;;;17.35;82.88;101052.63;5051707;28;20333;-78
2021/06/29 02:38:49;;;;;;;15.40;7.50;;;;;;;18.08;81.97;101139.91;5052606;28;20184;-78
2021/06/29 02:41:14;;;;;;;11.43;7.13;;;;;;;17.53;82.41;101057.09;5053704;28;20615;-78
2021/06/29 02:43:42;;;;;;;16.80;8.00;;;;;;;16.45;82.26;100912.97;5050351;28;20194;-78
2021/06/29 02:46:07;;;;;;;14.53;8.07;;;;;;;18.00;83.41;101172.84;5050078;28;20184;-78
2021/06/29 02:48:33;;;;;;;12.60;7.23;;;;;;;17.56;83.01;101086.44;5050845;28;20946;-78
2021/06/29 02:50:58;;;;;;;16.33;7.60;;;;;;;18.10;83.00;101173.03;5052124;28;20311;-78
2021/06/29 02:53:24;;;;;;;19.47;9.13;;;;;;;17.65;82.19;101073.34;5050520;28;20188;-78
2021/06/29 02:55:49;;;;;;;13.03;8.00;;;;;;;18.06;82.79;101177.31;5051688;28;20195;-78
2021/06/29 02:58:15;;;;;;;20.40;7.60;;;;;;;17.73;82.26;101110.91;5052330;28;20222;-78
2021/06/29 03:00:41;;;;;;;21.10;8.30;;;;;;;17.58;83.13;101129.59;5054250;28;20208;-78
2021/06/29 03:03:06;;;;;;;19.27;8.70;;;;;;;18.01;83.30;101172.59;5052891;28;20184;-78
2021/06/29 03:05:31;;;;;;;19.33;7.50;;;;;;;17.37;83.37;101080.34;5050910;28;20192;-77
2021/06/29 03:07:57;;;;;;;17.87;8.03;;;;;;;18.05;82.86;101160.19;5051972;28;20648;-78
2021/06/29 03:10:22;;;;;;;12.50;7.60;;;;;;;18.05;83.22;101164.78;5051718;28;20250;-78
2021/06/29 03:12:48;;;;;;;17.17;8.50;;;;;;;17.89;82.58;101133.81;5049618;28;20211;-79
2021/06/29 03:15:13;;;;;;;16.40;8.40;;;;;;;17.25;83.03;101038.06;5051148;28;20172;-78
2021/06/29 03:17:39;;;;;;;18.10;7.23;;;;;;;17.35;82.28;101030.94;5052375;28;20641;-78
2021/06/29 03:20:09;;;;;;;18.83;7.80;;;;;;;17.87;83.19;101170.38;5051898;28;20691;-78
2021/06/29 03:22:35;;;;;;;19.90;8.20;;;;;;;17.62;84.42;101175.00;5052964;28;20258;-79
2021/06/29 03:25:01;;;;;;;15.20;8.60;;;;;;;17.49;83.62;101107.44;5053770;28;20438;-79
2021/06/29 03:27:27;;;;;;;12.00;7.37;;;;;;;18.05;83.05;101181.91;5051961;28;20441;-79
2021/06/29 03:29:52;;;;;;;15.13;8.17;;;;;;;17.99;83.30;101172.03;5050634;28;20180;-78
2021/06/29 03:32:17;;;;;;;14.90;7.47;;;;;;;17.39;83.51;101099.91;5052190;28;20226;-79
2021/06/29 03:34:43;;;;;;;15.27;8.17;;;;;;;17.64;84.18;101123.22;5058145;28;20202;-79
2021/06/29 03:37:08;;;;;;;15.87;7.40;;;;;;;15.81;83.53;100817.31;5050360;28;20274;-79
2021/06/29 03:39:35;;;;;;;21.60;8.90;;;;;;;18.07;83.47;101152.63;5049263;28;20180;-78
2021/06/29 03:42:01;;;;;;;16.80;7.60;;;;;;;17.55;82.45;101046.00;5052214;28;20172;-78
2021/06/29 03:44:26;;;;;;;21.93;8.33;;;;;;;17.92;83.37;101148.78;5051678;28;20447;-78
2021/06/29 03:46:55;;;;;;;13.60;7.33;;;;;;;18.07;83.11;101152.63;5048924;28;20192;-78
2021/06/29 03:49:20;;;;;;;14.33;7.63;;;;;;;17.60;82.96;101062.38;5052576;28;20179;-78
2021/06/29 03:51:46;;;;;;;18.53;8.03;;;;;;;17.68;82.97;101067.44;5052932;28;20504;-79
2021/06/29 03:54:14;;;;;;;16.23;8.43;;;;;;;17.42;82.67;101013.75;5052055;28;20195;-78
2021/06/29 03:56:39;;;;;;;16.37;7.47;;;;;;;17.75;82.55;101070.81;5050159;28;20188;-78
2021/06/29 03:59:08;;;;;;;13.07;7.30;;;;;;;18.02;82.84;101110.97;5050269;28;20465;-77
2021/06/29 04:01:35;;;;;;;15.30;7.73;;;;;;;17.85;83.01;101089.22;5049614;28;20288;-79
2021/06/29 04:04:00;;;;;;;14.50;7.43;;;;;;;17.55;82.96;101035.13;5051492;28;20513;-79
2021/06/29 04:06:37;;;;;;;12.73;7.30;;;;;;;18.17;83.16;101152.03;5049029;28;21033;-79
2021/06/29 04:09:05;;;;;;;16.93;7.10;;;;;;;18.16;83.08;101136.78;5046921;28;20205;-78
2021/06/29 04:11:31;;;;;;;15.17;7.50;;;;;;;18.03;84.25;101128.94;5049201;28;20545;-78
2021/06/29 04:13:57;;;;;;;15.43;8.03;;;;;;;18.01;83.54;101109.34;5048072;28;21037;-78
2021/06/29 04:16:22;;;;;;;22.37;7.40;;;;;;;18.29;82.83;101141.09;5047379;28;20442;-79
2021/06/29 04:18:49;;;;;;;20.37;7.63;;;;;;;17.70;83.57;101092.41;5049026;28;20191;-78
2021/06/29 04:21:15;;;;;;;19.80;7.93;;;;;;;17.94;84.02;101130.38;5047348;28;20800;-78
2021/06/29 04:23:44;;;;;;;17.53;8.20;;;;;;;18.12;82.86;101116.63;5049177;28;20473;-78
2021/06/29 04:26:16;;;;;;;11.53;6.87;;;;;;;18.06;82.65;101110.28;5048033;28;20445;-78
2021/06/29 04:28:42;;;;;;;21.77;7.90;;;;;;;18.12;83.05;101127.47;5047513;28;20426;-78
2021/06/29 04:31:07;;;;;;;18.23;7.60;;;;;;;18.07;83.25;101128.19;5047078;28;20488;-78
2021/06/29 04:33:33;;;;;;;19.07;8.40;;;;;;;17.73;83.48;101077.53;5046491;28;20609;-78
2021/06/29 04:35:58;;;;;;;12.03;8.10;;;;;;;18.12;83.76;101149.19;5045837;28;20181;-78
2021/06/29 04:38:24;;;;;;;13.80;8.63;;;;;;;18.16;84.37;101147.63;5043637;28;20466;-78
2021/06/29 04:40:49;;;;;;;13.47;8.47;;;;;;;17.96;83.96;101114.66;5057660;28;20212;-78
2021/06/29 04:43:15;;;;;;;18.93;9.57;;;;;;;17.53;84.61;101089.63;5045413;28;20199;-78
2021/06/29 04:45:40;;;;;;;14.07;7.70;;;;;;;18.12;84.35;101151.91;5046207;28;20187;-79
2021/06/29 04:48:06;;;;;;;13.07;8.03;;;;;;;17.91;83.96;101099.13;5053927;28;20230;-78
2021/06/29 04:50:32;;;;;;;14.13;8.77;;;;;;;17.65;83.33;101048.06;5045831;28;20204;-78
2021/06/29 04:52:57;;;;;;;14.60;9.17;;;;;;;18.28;83.80;101155.72;5046067;28;20461;-78
2021/06/29 04:55:23;;;;;;;14.57;9.13;;;;;;;17.36;83.99;101019.03;5048749;28;20192;-78
2021/06/29 04:57:48;;;;;;;16.53;8.83;;;;;;;18.21;84.81;101152.34;5045726;28;20744;-78
2021/06/29 05:00:17;;;;;;;18.20;9.47;;;;;;;18.28;84.14;101153.88;5048027;28;20221;-77
2021/06/29 05:02:43;;;;;;;20.10;10.67;;;;;;;18.20;84.41;101167.00;5047974;28;20177;-79
2021/06/29 05:05:10;;;;;;;21.43;11.00;;;;;;;17.52;86.34;101128.66;5045230;28;20493;-79
2021/06/29 05:07:37;;;;;;;27.93;11.30;;;;;;;17.50;86.32;101122.66;5050757;28;20434;-79
2021/06/29 05:10:05;;;;;;;16.93;9.93;;;;;;;18.06;85.62;101161.03;5061386;28;20470;-78
2021/06/29 05:12:30;;;;;;;17.20;9.77;;;;;;;18.27;84.64;101141.34;5047557;28;20462;-78
2021/06/29 05:14:59;;;;;;;24.90;11.43;;;;;;;17.46;85.18;101033.88;5045173;28;20445;-77
2021/06/29 05:17:24;;;;;;;22.13;9.90;;;;;;;17.79;83.91;101054.91;5043726;28;20240;-78
2021/06/29 05:19:49;;;;;;;25.43;11.47;;;;;;;18.47;84.36;101170.78;5049247;28;20511;-78
2021/06/29 05:22:15;;;;;;;14.00;9.23;;;;;;;18.07;85.16;101103.75;5047599;28;20188;-77
2021/06/29 05:24:43;;;;;;;15.63;8.57;;;;;;;17.88;85.05;101050.75;5041422;28;20212;-77
2021/06/29 05:27:11;;;;;;;13.17;9.70;;;;;;;18.27;85.56;101152.19;5044465;28;20189;-77
2021/06/29 05:29:36;;;;;;;21.17;9.27;;;;;;;18.06;85.28;101098.59;5044226;28;21078;-78
2021/06/29 05:32:03;;;;;;;27.77;12.00;;;;;;;18.01;86.73;101139.19;5041391;28;20496;-77
2021/06/29 05:34:29;;;;;;;20.70;12.33;;;;;;;18.02;87.19;101133.53;5043455;28;20223;-78
2021/06/29 05:36:54;;;;;;;32.20;15.53;;;;;;;17.62;87.05;101093.63;5044936;28;20443;-78
2021/06/29 05:39:20;;;;;;;23.27;14.40;;;;;;;18.01;87.21;101144.63;5045354;28;20188;-80
2021/06/29 05:41:45;;;;;;;22.70;13.30;;;;;;;17.97;87.44;101154.31;5044335;28;20208;-78
2021/06/29 05:44:11;;;;;;;31.57;15.57;;;;;;;18.09;87.43;101165.16;5040127;28;20190;-79
2021/06/29 05:46:40;;;;;;;25.10;13.00;;;;;;;18.32;87.13;101184.06;5041555;28;20184;-78
2021/06/29 05:49:09;;;;;;;25.93;15.57;;;;;;;18.13;87.18;101160.88;5042562;28;20507;-78
2021/06/29 05:51:35;;;;;;;23.47;14.00;;;;;;;17.79;87.46;101076.59;5044790;28;20466;-78
2021/06/29 05:54:03;;;;;;;22.00;13.30;;;;;;;17.69;87.33;101074.50;5049213;28;20448;-79
2021/06/29 05:56:29;;;;;;;23.13;12.13;;;;;;;18.03;88.30;101154.19;5048675;28;20659;-79
2021/06/29 05:58:54;;;;;;;18.73;10.67;;;;;;;18.17;88.38;101179.16;5043312;28;20434;-78
2021/06/29 06:01:20;;;;;;;20.13;10.80;;;;;;;16.54;88.24;100953.25;5052492;28;20196;-78
2021/06/29 06:03:45;;;;;;;23.67;12.30;;;;;;;17.78;88.42;101178.88;5035220;28;20857;-78
2021/06/29 06:06:11;;;;;;;25.23;10.40;;;;;;;17.26;87.94;101055.94;5043160;28;20183;-78
2021/06/29 06:08:36;;;;;;;19.50;10.00;;;;;;;17.92;88.08;101176.75;5045024;28;20180;-78
2021/06/29 06:11:02;;;;;;;32.03;10.80;;;;;;;17.80;88.36;101194.94;5054207;22;20319;-79
2021/06/29 06:13:28;;;;;;;21.13;9.70;;;;;;;17.54;88.83;101159.06;5020455;28;20188;-78
2021/06/29 06:15:54;;;;;;;36.90;10.40;;;;;;;16.70;88.38;101001.31;5031114;28;20530;-78
2021/06/29 06:18:20;;;;;;;17.43;10.20;;;;;;;17.59;88.56;101172.75;5031296;28;20186;-77
2021/06/29 06:20:46;;;;;;;20.83;10.53;;;;;;;17.73;88.60;101172.50;5026276;28;20473;-79
2021/06/29 06:23:12;;;;;;;20.77;9.77;;;;;;;17.43;87.86;101105.69;5026446;28;20629;-79
2021/06/29 06:25:38;;;;;;;26.77;9.50;;;;;;;18.14;87.60;101212.22;5031357;28;20204;-78
2021/06/29 06:28:04;;;;;;;26.73;11.80;;;;;;;17.86;87.53;101190.44;5029950;28;20438;-76
2021/06/29 06:30:29;;;;;;;22.70;12.43;;;;;;;17.36;88.23;101142.94;5029659;28;20212;-78
2021/06/29 06:32:55;;;;;;;26.40;11.80;;;;;;;17.28;88.03;101135.16;5031126;28;20945;-78
2021/06/29 06:35:20;;;;;;;20.27;12.03;;;;;;;17.68;87.94;101202.25;5027468;28;20203;-79
2021/06/29 06:37:46;;;;;;;31.17;12.47;;;;;;;17.58;88.89;101202.81;5030810;28;20188;-80
2021/06/29 06:40:12;;;;;;;31.33;12.70;;;;;;;17.44;88.47;101166.16;5032823;28;20213;-79
2021/06/29 06:42:38;;;;;;;30.10;12.23;;;;;;;17.78;88.08;101197.06;5031697;28;20757;-78
2021/06/29 06:45:05;;;;;;;28.20;13.10;;;;;;;17.39;87.79;101139.75;5018886;28;20457;-79
2021/06/29 06:47:31;;;;;;;30.93;12.63;;;;;;;17.77;88.65;101196.22;5017664;28;20480;-79
2021/06/29 06:49:56;;;;;;;25.03;11.40;;;;;;;17.89;87.43;101185.38;5026569;28;20947;-79
2021/06/29 06:52:22;;;;;;;18.30;10.80;;;;;;;16.40;87.86;100929.13;5033113;28;20225;-80
2021/06/29 06:54:47;;;;;;;21.03;10.73;;;;;;;16.58;87.27;100957.16;5031557;28;20220;-79
2021/06/29 06:57:13;;;;;;;21.93;10.37;;;;;;;18.29;86.74;101179.94;5030156;28;20203;-79
2021/06/29 06:59:39;;;;;;;24.03;11.70;;;;;;;16.60;87.22;100947.72;5010287;28;20224;-78
2021/06/29 07:02:05;;;;;;;19.70;10.00;;;;;;;17.71;87.12;101085.94;5027631;28;20192;-78
2021/06/29 07:04:30;;;;;;;23.03;11.60;;;;;;;18.03;86.84;101156.91;5030080;28;20185;-78
2021/06/29 07:06:56;;;;;;;24.97;11.60;;;;;;;17.77;87.08;101160.94;5031027;28;20440;-81
2021/06/29 07:09:22;;;;;;;19.77;10.87;;;;;;;17.62;86.66;101069.22;5022492;28;20185;-80
2021/06/29 07:11:51;;;;;;;23.00;10.53;;;;;;;18.28;85.99;101145.72;5039353;28;20208;-81
2021/06/29 07:14:17;;;;;;;17.83;9.90;;;;;;;18.20;86.20;101139.84;5041356;28;20238;-81
2021/06/29 07:16:43;;;;;;;24.90;10.60;;;;;;;17.98;86.10;101126.13;5032154;28;20435;-81
2021/06/29 07:19:09;;;;;;;24.23;10.10;;;;;;;17.85;86.12;101100.09;5024983;28;20466;-81
2021/06/29 07:21:36;;;;;;;18.13;10.40;;;;;;;18.05;84.99;101100.50;5041343;28;20331;-81
2021/06/29 07:24:02;;;;;;;27.83;11.43;;;;;;;18.02;86.02;101121.84;5034732;28;20446;-78
2021/06/29 07:26:27;;;;;;;21.13;10.73;;;;;;;18.23;85.87;101166.53;5028397;28;20433;-78
2021/06/29 07:28:53;;;;;;;18.27;10.60;;;;;;;17.83;85.45;101094.88;5030771;28;20189;-81
2021/06/29 07:31:18;;;;;;;30.37;13.20;;;;;;;18.16;86.03;101165.81;5028709;28;20264;-79
2021/06/29 07:33:48;;;;;;;28.37;11.60;;;;;;;18.18;85.68;101153.66;5030648;28;20187;-79
2021/06/29 07:36:17;;;;;;;28.00;11.00;;;;;;;17.42;86.02;101036.25;5028177;28;20245;-79
2021/06/29 07:38:44;;;;;;;22.30;11.30;;;;;;;18.13;86.11;101150.00;5032586;28;20467;-79
2021/06/29 07:41:11;;;;;;;19.97;9.97;;;;;;;18.47;85.07;101157.19;5014788;28;20451;-79
2021/06/29 07:43:37;;;;;;;27.80;12.47;;;;;;;18.54;84.82;101154.31;5030029;28;20439;-79
2021/06/29 07:46:03;;;;;;;24.80;11.30;;;;;;;18.51;85.40;101149.38;5030013;28;20465;-79
2021/06/29 07:48:28;;;;;;;16.33;9.87;;;;;;;18.79;83.99;101158.59;5030699;28;20474;-82
2021/06/29 07:50:54;;;;;;;26.47;11.97;;;;;;;18.66;84.27;101125.22;5028218;28;20216;-78
2021/06/29 07:53:21;;;;;;;27.70;11.07;;;;;;;18.58;83.60;101103.06;5031507;28;20206;-79
2021/06/29 07:55:49;;;;;;;30.73;10.60;;;;;;;18.40;83.09;101041.63;5030636;28;20440;-78
2021/06/29 07:58:14;;;;;;;22.53;11.20;;;;;;;18.90;82.39;101108.78;5029487;28;20431;-78
2021/06/29 08:00:40;;;;;;;14.67;9.17;;;;;;;18.48;82.62;101024.91;5028997;28;20458;-78
2021/06/29 08:03:05;;;;;;;15.13;8.50;;;;;;;18.30;82.34;101005.09;5027796;28;20181;-78
2021/06/29 08:05:31;;;;;;;22.17;10.50;;;;;;;17.13;82.61;100794.97;5022542;28;20185;-79
2021/06/29 08:07:56;;;;;;;23.17;10.10;;;;;;;18.95;83.05;101089.84;5025024;28;20177;-78
2021/06/29 08:10:22;;;;;;;22.13;9.30;;;;;;;19.28;82.47;101127.03;5024911;28;20208;-78
2021/06/29 08:12:48;;;;;;;20.37;9.90;;;;;;;19.24;82.26;101127.75;5014226;28;20200;-78
2021/06/29 08:15:18;;;;;;;21.13;10.10;;;;;;;19.37;81.91;101150.00;5022886;28;20652;-78
2021/06/29 08:17:45;;;;;;;21.37;10.20;;;;;;;18.65;82.25;101044.75;5019409;28;20826;-79
2021/06/29 08:20:12;;;;;;;23.77;10.90;;;;;;;18.40;81.48;101000.88;5023899;28;20467;-79
2021/06/29 08:22:37;;;;;;;17.00;10.97;;;;;;;18.61;81.64;101019.16;5026016;28;20432;-78
2021/06/29 08:25:06;;;;;;;21.63;10.13;;;;;;;18.99;80.90;101049.38;5015684;28;20450;-79
2021/06/29 08:27:32;;;;;;;36.57;11.87;;;;;;;19.30;81.42;101129.50;5019311;28;20184;-76
2021/06/29 08:29:58;;;;;;;31.73;14.50;;;;;;;18.68;81.94;101074.16;5020033;28;20466;-78
2021/06/29 08:32:24;;;;;;;30.80;13.67;;;;;;;19.54;81.86;101160.84;5024719;28;20289;-77
2021/06/29 08:34:51;;;;;;;31.63;13.77;;;;;;;19.55;81.01;101170.66;5023470;28;20444;-77
2021/06/29 08:37:17;;;;;;;16.90;10.23;;;;;;;19.81;80.33;101157.44;5021646;28;20874;-76
2021/06/29 08:39:43;;;;;;;24.93;14.80;;;;;;;19.57;81.31;101176.69;5019615;28;20449;-80
2021/06/29 08:42:08;;;;;;;29.03;15.63;;;;;;;19.23;81.49;101096.22;5008108;28;20940;-77
2021/06/29 08:44:34;;;;;;;32.50;18.00;;;;;;;19.01;82.09;101131.53;5001736;28;20303;-77
2021/06/29 08:46:59;;;;;;;25.70;16.80;;;;;;;18.86;81.91;101050.53;5018514;28;20276;-77
2021/06/29 08:49:24;;;;;;;29.27;17.77;;;;;;;18.96;81.42;101077.88;5020248;28;20180;-77
2021/06/29 08:51:51;;;;;;;28.27;16.80;;;;;;;19.49;81.88;101155.34;5016566;28;20211;-77
2021/06/29 08:54:21;;;;;;;25.57;17.73;;;;;;;19.27;82.81;101128.13;5009727;28;20185;-77
2021/06/29 08:56:46;;;;;;;26.50;19.57;;;;;;;19.30;83.41;101160.25;5020843;28;20507;-77
2021/06/29 08:59:12;;;;;;;21.40;15.43;;;;;;;19.11;82.91;101069.94;5017669;28;20436;-77
2021/06/29 09:01:37;;;;;;;27.30;16.20;;;;;;;19.24;82.49;101074.22;5002392;28;20220;-77
2021/06/29 09:04:03;;;;;;;25.27;16.07;;;;;;;19.73;82.25;101155.13;5021510;28;20188;-77
2021/06/29 09:06:40;;;;;;;30.80;17.57;;;;;;;19.25;82.68;101094.91;5016717;28;20543;-77
2021/06/29 09:09:31;;;;;;;21.53;17.00;;;;;;;19.29;83.52;101139.53;5021474;28;20260;-77
2021/06/29 09:11:57;;;;;;;24.80;16.73;;;;;;;19.08;83.76;101103.06;5021126;28;20521;-81
2021/06/29 09:14:31;;;;;;;29.73;16.20;;;;;;;19.43;84.09;101148.19;5025408;28;20974;-78
2021/06/29 09:17:19;;;;;;;22.07;15.80;;;;;;;19.59;83.21;101138.34;5025113;28;21423;-78
2021/06/29 09:19:45;;;;;;;25.27;19.10;;;;;;;19.34;83.41;101117.88;5028332;28;20446;-78
2021/06/29 09:22:32;;;;;;;25.37;17.77;;;;;;;19.40;83.81;101137.81;5029414;28;20915;-78
2021/06/29 09:24:58;;;;;;;20.27;15.70;;;;;;;19.57;83.29;101144.03;5031133;28;20434;-78
2021/06/29 09:27:47;;;;;;;31.07;20.10;;;;;;;19.33;83.97;101145.31;5025697;28;20439;-78
2021/06/29 09:30:34;;;;;;;24.43;18.13;;;;;;;19.28;84.11;101147.97;5026962;28;20480;-78
2021/06/29 09:33:08;;;;;;;26.50;16.97;;;;;;;19.41;83.62;101139.44;5023833;28;20506;-79
2021/06/29 09:35:38;;;;;;;19.20;14.27;;;;;;;19.53;83.11;101132.00;5026373;28;20968;-78
2021/06/29 09:38:05;;;;;;;23.20;15.90;;;;;;;19.67;83.13;101150.72;5026745;28;20443;-78
2021/06/29 09:40:32;;;;;;;32.67;19.57;;;;;;;18.77;83.05;101014.00;5023294;28;20499;-77
2021/06/29 09:43:10;;;;;;;24.73;17.00;;;;;;;19.53;83.26;101142.91;5021155;28;20428;-77
2021/06/29 09:45:44;;;;;;;30.57;20.37;;;;;;;19.40;84.05;101146.78;5029508;28;21454;-78
2021/06/29 09:48:11;;;;;;;25.97;18.03;;;;;;;19.45;83.64;101156.91;5028958;28;20463;-79
2021/06/29 09:50:54;;;;;;;27.30;19.10;;;;;;;19.11;84.04;101104.47;5026134;28;20455;-77
2021/06/29 09:53:27;;;;;;;31.30;17.40;;;;;;;19.32;83.58;101135.50;5031833;28;20542;-78
2021/06/29 09:56:00;;;;;;;27.07;18.27;;;;;;;19.23;83.74;101131.56;5025024;28;20482;-77
2021/06/29 09:58:27;;;;;;;32.07;19.03;;;;;;;19.29;84.30;101142.25;5026374;28;20446;-77
2021/06/29 10:00:53;;;;;;;31.40;18.00;;;;;;;19.33;83.58;101142.59;5024105;28;20593;-78
2021/06/29 10:03:35;;;;;;;27.00;16.80;;;;;;;19.53;83.03;101159.22;5027827;28;20520;-79
2021/06/29 10:06:28;;;;;;;25.47;16.87;;;;;;;19.69;83.39;101159.44;5027184;28;20452;-77
2021/06/29 10:09:03;;;;;;;21.87;15.10;;;;;;;19.55;85.05;101167.94;5022410;28;20557;-77
2021/06/29 10:11:32;;;;;;;29.83;18.00;;;;;;;19.39;85.33;101158.75;5028100;28;21143;-78
2021/06/29 10:14:00;;;;;;;27.37;16.43;;;;;;;19.46;85.46;101174.88;5031254;28;20447;-79
2021/06/29 10:16:40;;;;;;;25.60;16.27;;;;;;;19.03;85.33;101074.97;5026735;28;20439;-77
2021/06/29 10:21:46;;;;;;;22.73;14.60;;;;;;;19.74;85.27;101156.81;5029375;28;20459;-81
2021/06/29 10:24:13;;;;;;;25.70;17.33;;;;;;;19.73;84.42;101163.31;5031167;28;20446;-82
2021/06/29 10:26:41;;;;;;;25.60;16.03;;;;;;;19.56;83.30;101127.97;5029418;28;20438;-82
2021/06/29 10:29:11;;;;;;;28.07;16.87;;;;;;;19.91;83.06;101154.84;5023505;28;20423;-81
2021/06/29 10:31:40;;;;;;;23.47;16.17;;;;;;;19.50;84.17;101104.47;5031010;28;20466;-80
2021/06/29 10:34:08;;;;;;;27.07;17.00;;;;;;;19.60;84.14;101132.63;5016325;28;20763;-80
2021/06/29 10:36:39;;;;;;;24.77;17.90;;;;;;;19.53;84.32;101125.75;5025929;28;20450;-80
2021/06/29 10:39:12;;;;;;;23.50;15.50;;;;;;;19.66;83.98;101136.28;5034874;28;22491;-79
2021/06/29 10:41:41;;;;;;;26.73;16.83;;;;;;;19.89;83.32;101150.72;5019119;28;20493;-80
2021/06/29 10:44:17;;;;;;;19.73;13.70;;;;;;;19.72;85.41;101156.22;5033011;28;20530;-81
2021/06/29 10:46:56;;;;;;;23.00;16.37;;;;;;;19.42;86.58;101128.31;5032414;28;20436;-83
2021/06/29 10:49:31;;;;;;;24.57;15.83;;;;;;;19.48;86.45;101128.41;5033202;28;20591;-82
2021/06/29 10:51:59;;;;;;;28.93;19.67;;;;;;;19.51;86.93;101155.09;5016646;28;22314;-82
2021/06/29 10:54:48;;;;;;;28.33;18.03;;;;;;;19.29;84.65;101100.66;5034122;28;20529;-83
2021/06/29 10:57:16;;;;;;;29.83;18.00;;;;;;;19.55;86.80;101151.59;5013961;28;20428;-85
2021/06/29 10:59:49;;;;;;;22.23;16.17;;;;;;;19.82;85.21;101143.59;5013411;28;20453;-81
2021/06/29 11:02:30;;;;;;;23.90;18.00;;;;;;;19.08;84.97;101026.13;5031107;28;20439;-85
2021/06/29 11:05:06;;;;;;;23.70;17.43;;;;;;;19.75;85.91;101153.00;5033715;28;20911;-83
2021/06/29 11:07:31;;;;;;;31.43;20.53;;;;;;;19.67;86.13;101140.63;5033081;28;20431;-82
2021/06/29 11:10:06;;;;;;;24.47;18.40;;;;;;;18.83;86.57;101032.84;5016266;28;20547;-84
2021/06/29 11:12:35;;;;;;;30.73;19.60;;;;;;;19.59;86.31;101141.88;5017645;28;20204;-82
2021/06/29 11:15:06;;;;;;;27.27;18.10;;;;;;;19.74;86.35;101143.19;5021686;28;20451;-82
2021/06/29 11:17:54;;;;;;;28.53;20.03;;;;;;;19.68;85.79;101134.16;5011415;28;20464;-84
2021/06/29 11:20:25;;;;;;;23.80;18.47;;;;;;;19.72;86.02;101151.59;5028894;28;20795;-84
2021/06/29 11:23:10;;;;;;;39.27;21.40;;;;;;;19.53;85.72;101132.00;5019726;28;20435;-85
2021/06/29 11:25:47;;;;;;;29.20;20.10;;;;;;;19.68;86.06;101134.16;5029050;28;20440;-85